createdAt,value
2018-06-15T00:00:10.842Z,15.60
2018-06-15T00:02:39.211Z,15.50
2018-06-15T00:07:35.712Z,15.40
2018-06-15T00:10:04.276Z,15.30
2018-06-15T00:12:32.670Z,15.20
2018-06-15T00:15:01.097Z,15.20
2018-06-15T00:17:29.474Z,15.10
2018-06-15T00:19:57.887Z,15.10
2018-06-15T00:22:26.264Z,15.10
2018-06-15T00:24:54.655Z,15.00
2018-06-15T00:27:23.020Z,15.10
2018-06-15T00:29:51.407Z,15.00
2018-06-15T00:32:19.771Z,15.00
2018-06-15T00:34:48.168Z,15.00
2018-06-15T00:37:16.531Z,15.00
2018-06-15T00:39:44.950Z,15.00
2018-06-15T00:42:16.263Z,15.00
2018-06-15T00:44:44.662Z,15.00
2018-06-15T00:47:13.028Z,15.00
2018-06-15T00:49:41.425Z,14.80
2018-06-15T00:52:09.795Z,14.80
2018-06-15T00:54:38.192Z,14.80
2018-06-15T00:57:17.930Z,14.90
2018-06-15T00:59:46.320Z,15.00
2018-06-15T01:02:14.702Z,15.10
2018-06-15T01:04:43.108Z,15.20
2018-06-15T01:07:11.483Z,15.20
2018-06-15T01:09:39.947Z,15.20
2018-06-15T01:12:08.342Z,15.20
2018-06-15T01:14:36.711Z,15.10
2018-06-15T01:17:05.131Z,15.10
2018-06-15T01:19:33.508Z,15.00
2018-06-15T01:22:01.901Z,15.00
2018-06-15T01:24:30.392Z,15.10
2018-06-15T01:26:58.824Z,15.10
2018-06-15T01:29:27.251Z,15.00
2018-06-15T01:31:55.646Z,15.10
2018-06-15T01:34:24.038Z,15.10
2018-06-15T01:36:52.419Z,15.10
2018-06-15T01:39:20.797Z,15.20
2018-06-15T01:41:49.190Z,15.30
2018-06-15T01:44:17.573Z,15.30
2018-06-15T01:46:45.964Z,15.30
2018-06-15T01:49:14.323Z,15.40
2018-06-15T01:51:42.743Z,15.50
2018-06-15T01:54:11.104Z,15.60
2018-06-15T01:56:39.500Z,15.50
2018-06-15T01:59:07.854Z,15.50
2018-06-15T02:01:36.249Z,15.50
2018-06-15T02:04:04.643Z,15.50
2018-06-15T02:06:33.019Z,15.40
2018-06-15T02:09:01.787Z,15.30
2018-06-15T02:11:30.515Z,15.20
2018-06-15T02:13:58.879Z,15.00
2018-06-15T02:16:27.273Z,15.00
2018-06-15T02:18:55.776Z,15.10
2018-06-15T02:21:24.168Z,15.20
2018-06-15T02:23:52.529Z,15.20
2018-06-15T02:26:20.928Z,15.40
2018-06-15T02:28:49.312Z,15.50
2018-06-15T02:31:17.690Z,15.50
2018-06-15T02:33:46.057Z,15.50
2018-06-15T02:36:14.439Z,15.50
2018-06-15T02:38:42.796Z,15.60
2018-06-15T02:41:11.198Z,15.60
2018-06-15T02:43:39.559Z,15.70
2018-06-15T02:46:07.945Z,15.60
2018-06-15T02:48:36.317Z,15.50
2018-06-15T02:51:04.728Z,15.50
2018-06-15T02:53:33.108Z,15.40
2018-06-15T02:56:01.543Z,15.40
2018-06-15T02:58:29.935Z,15.40
2018-06-15T03:00:58.305Z,15.40
2018-06-15T03:03:26.676Z,15.30
2018-06-15T03:05:55.147Z,15.30
2018-06-15T03:08:23.533Z,15.30
2018-06-15T03:10:51.951Z,15.40
2018-06-15T03:13:20.355Z,15.30
2018-06-15T03:15:48.752Z,15.30
2018-06-15T03:18:17.152Z,15.30
2018-06-15T03:20:45.547Z,15.30
2018-06-15T03:23:14.036Z,15.30
2018-06-15T03:25:42.812Z,15.20
2018-06-15T03:28:11.217Z,15.20
2018-06-15T03:30:39.609Z,15.20
2018-06-15T03:33:08.069Z,15.10
2018-06-15T03:35:36.444Z,15.10
2018-06-15T03:38:04.936Z,15.10
2018-06-15T03:40:33.312Z,15.10
2018-06-15T03:43:01.741Z,15.10
2018-06-15T03:45:30.143Z,15.10
2018-06-15T03:47:58.549Z,15.10
2018-06-15T03:50:26.950Z,15.20
2018-06-15T03:52:55.352Z,15.30
2018-06-15T03:55:23.727Z,15.30
2018-06-15T03:57:52.126Z,15.30
2018-06-15T04:00:20.497Z,15.50
2018-06-15T04:02:48.914Z,15.70
2018-06-15T04:05:17.312Z,16.00
2018-06-15T04:07:45.819Z,16.00
2018-06-15T04:10:14.194Z,16.10
2018-06-15T04:12:42.670Z,16.10
2018-06-15T04:15:11.057Z,16.30
2018-06-15T04:17:39.449Z,16.30
2018-06-15T04:20:07.848Z,16.20
2018-06-15T04:22:36.284Z,16.20
2018-06-15T04:25:04.715Z,16.30
2018-06-15T04:27:33.115Z,16.50
2018-06-15T04:30:01.710Z,16.60
2018-06-15T04:32:30.113Z,16.70
2018-06-15T04:34:58.599Z,16.80
2018-06-15T04:37:27.203Z,16.80
2018-06-15T04:39:55.513Z,16.90
2018-06-15T04:42:23.930Z,16.90
2018-06-15T04:44:52.330Z,16.90
2018-06-15T04:47:20.720Z,17.10
2018-06-15T04:49:49.157Z,17.00
2018-06-15T04:52:17.573Z,16.90
2018-06-15T04:54:45.993Z,17.10
2018-06-15T04:57:14.393Z,17.20
2018-06-15T04:59:42.797Z,17.20
2018-06-15T05:02:11.176Z,17.40
2018-06-15T05:04:39.597Z,17.90
2018-06-15T05:07:07.983Z,18.10
2018-06-15T05:09:36.392Z,18.00
2018-06-15T05:12:04.885Z,18.20
2018-06-15T05:14:33.270Z,18.00
2018-06-15T05:17:01.669Z,18.10
2018-06-15T05:19:30.031Z,18.20
2018-06-15T05:21:58.411Z,18.20
2018-06-15T05:24:26.784Z,18.10
2018-06-15T05:26:55.167Z,18.10
2018-06-15T05:29:23.603Z,18.10
2018-06-15T05:31:52.038Z,18.40
2018-06-15T05:34:20.492Z,18.70
2018-06-15T05:36:48.875Z,19.50
2018-06-15T05:39:17.340Z,22.10
2018-06-15T05:41:45.749Z,22.30
2018-06-15T05:44:14.169Z,21.30
2018-06-15T05:46:42.549Z,21.80
2018-06-15T05:49:10.957Z,23.20
2018-06-15T05:51:39.405Z,24.30
2018-06-15T05:54:07.884Z,24.90
2018-06-15T05:56:36.282Z,28.20
2018-06-15T05:59:04.750Z,27.50
2018-06-15T06:01:33.229Z,28.10
2018-06-15T06:04:01.684Z,28.60
2018-06-15T06:06:30.010Z,28.40
2018-06-15T06:08:58.433Z,28.90
2018-06-15T06:11:26.789Z,28.20
2018-06-15T06:13:55.217Z,27.50
2018-06-15T06:16:23.581Z,28.40
2018-06-15T06:18:51.996Z,28.50
2018-06-15T06:21:20.404Z,26.60
2018-06-15T06:23:48.804Z,26.40
2018-06-15T06:26:17.197Z,26.80
2018-06-15T06:28:45.555Z,25.20
2018-06-15T06:31:13.918Z,24.90
2018-06-15T06:33:42.315Z,25.40
2018-06-15T06:36:10.673Z,28.10
2018-06-15T06:38:39.143Z,29.90
2018-06-15T06:41:07.528Z,29.00
2018-06-15T06:43:35.923Z,32.20
2018-06-15T06:46:04.520Z,32.60
2018-06-15T06:48:32.940Z,33.00
2018-06-15T06:51:01.347Z,33.50
2018-06-15T06:53:29.721Z,34.40
2018-06-15T06:55:58.227Z,33.30
2018-06-15T06:58:26.672Z,30.60
2018-06-15T07:00:55.032Z,28.90
2018-06-15T07:03:23.503Z,27.30
2018-06-15T07:05:51.912Z,26.00
2018-06-15T07:08:20.296Z,26.60
2018-06-15T07:10:48.750Z,26.10
2018-06-15T07:13:17.259Z,27.70
2018-06-15T07:15:45.683Z,29.50
2018-06-15T07:18:14.071Z,30.20
2018-06-15T07:20:43.064Z,30.20
2018-06-15T07:23:11.579Z,28.40
2018-06-15T07:25:39.954Z,29.00
2018-06-15T07:28:08.329Z,28.30
2018-06-15T07:30:36.725Z,28.30
2018-06-15T07:33:05.436Z,27.90
2018-06-15T07:35:33.824Z,27.50
2018-06-15T07:40:30.288Z,26.30
2018-06-15T07:42:58.678Z,25.70
2018-06-15T07:45:27.120Z,25.00
2018-06-15T07:47:55.540Z,25.30
2018-06-15T07:50:23.936Z,26.20
2018-06-15T07:52:52.430Z,26.30
2018-06-15T07:55:20.820Z,27.70
2018-06-15T07:57:49.171Z,27.50
2018-06-15T08:00:17.643Z,27.10
2018-06-15T08:02:46.066Z,29.60
2018-06-15T08:05:14.436Z,31.80
2018-06-15T08:07:42.795Z,33.90
2018-06-15T08:10:11.265Z,34.50
2018-06-15T08:12:39.617Z,35.30
2018-06-15T08:15:08.147Z,35.00
2018-06-15T08:17:36.516Z,33.30
2018-06-15T08:20:05.059Z,30.30
2018-06-15T08:22:33.451Z,29.00
2018-06-15T08:25:01.851Z,33.10
2018-06-15T08:27:30.244Z,35.50
2018-06-15T08:29:58.692Z,36.70
2018-06-15T08:32:27.072Z,38.00
2018-06-15T08:34:55.469Z,38.30
2018-06-15T08:37:23.851Z,39.40
2018-06-15T08:39:52.264Z,38.50
2018-06-15T08:42:20.708Z,40.00
2018-06-15T08:44:49.023Z,39.20
2018-06-15T08:47:17.412Z,39.70
2018-06-15T08:49:45.905Z,40.00
2018-06-15T08:52:14.312Z,39.30
2018-06-15T08:54:42.707Z,39.10
2018-06-15T08:57:11.099Z,37.00
2018-06-15T08:59:39.469Z,37.90
2018-06-15T09:02:08.013Z,39.40
2018-06-15T09:04:36.461Z,40.10
2018-06-15T09:07:05.071Z,39.90
2018-06-15T09:09:33.563Z,37.60
2018-06-15T09:12:01.928Z,37.90
2018-06-15T09:14:30.289Z,39.00
2018-06-15T09:16:58.660Z,39.50
2018-06-15T09:19:27.565Z,39.70
2018-06-15T09:21:55.982Z,40.50
2018-06-15T09:24:24.316Z,39.80
2018-06-15T09:26:52.671Z,38.50
2018-06-15T09:29:21.034Z,35.00
2018-06-15T09:31:49.428Z,35.80
2018-06-15T09:34:17.771Z,35.30
2018-06-15T09:36:46.166Z,35.70
2018-06-15T09:39:14.505Z,35.40
2018-06-15T09:41:42.888Z,35.50
2018-06-15T09:44:11.252Z,33.70
2018-06-15T09:46:39.697Z,33.00
2018-06-15T09:49:07.983Z,32.20
2018-06-15T09:51:36.343Z,32.20
2018-06-15T09:54:04.740Z,31.70
2018-06-15T09:56:33.155Z,31.60
2018-06-15T09:59:01.887Z,31.20
2018-06-15T10:01:30.290Z,29.80
2018-06-15T10:03:58.664Z,30.00
2018-06-15T10:06:27.036Z,29.00
2018-06-15T10:08:55.399Z,28.90
2018-06-15T10:11:23.792Z,29.10
2018-06-15T10:13:52.171Z,28.60
2018-06-15T10:16:20.622Z,28.20
2018-06-15T10:18:49.015Z,27.90
2018-06-15T10:23:45.616Z,26.90
2018-06-15T10:26:14.012Z,26.90
2018-06-15T10:28:42.420Z,26.90
2018-06-15T10:31:10.796Z,27.00
2018-06-15T10:33:39.280Z,26.70
2018-06-15T10:36:07.642Z,26.60
2018-06-15T10:38:36.022Z,26.50
2018-06-15T10:41:04.479Z,27.00
2018-06-15T10:43:33.028Z,26.80
2018-06-15T10:46:01.392Z,26.70
2018-06-15T10:48:29.891Z,26.80
2018-06-15T10:50:58.348Z,26.10
2018-06-15T10:53:26.755Z,25.70
2018-06-15T10:55:55.212Z,26.00
2018-06-15T10:58:23.632Z,26.70
2018-06-15T11:00:52.177Z,26.80
2018-06-15T11:03:20.756Z,26.40
2018-06-15T11:05:49.183Z,26.70
2018-06-15T11:08:17.572Z,27.00
2018-06-15T11:10:45.952Z,27.10
2018-06-15T11:13:14.353Z,27.00
2018-06-15T11:18:10.817Z,27.70
2018-06-15T11:23:07.312Z,27.40
2018-06-15T11:25:35.687Z,26.60
2018-06-15T11:30:32.192Z,26.80
2018-06-15T11:33:00.592Z,26.70
2018-06-15T11:35:29.072Z,26.00
2018-06-15T11:37:57.444Z,26.50
2018-06-15T11:40:25.841Z,26.60
2018-06-15T11:42:54.369Z,26.50
2018-06-15T11:45:22.780Z,26.80
2018-06-15T11:47:51.345Z,26.50
2018-06-15T11:50:19.744Z,26.60
2018-06-15T11:52:48.132Z,26.90
2018-06-15T11:55:16.612Z,26.60
2018-06-15T11:57:45.004Z,26.50
2018-06-15T12:00:13.437Z,27.20
2018-06-15T12:02:41.894Z,27.30
2018-06-15T12:05:10.265Z,27.70
2018-06-15T12:07:38.652Z,27.90
2018-06-15T12:10:07.064Z,26.90
2018-06-15T12:12:35.412Z,26.60
2018-06-15T12:15:03.819Z,26.80
2018-06-15T12:17:32.333Z,27.10
2018-06-15T12:20:00.739Z,27.10
2018-06-15T12:22:29.142Z,26.70
2018-06-15T12:24:57.540Z,25.90
2018-06-15T12:27:25.906Z,25.80
2018-06-15T12:29:54.329Z,25.60
2018-06-15T12:32:22.712Z,25.70
2018-06-15T12:34:51.116Z,26.40
2018-06-15T12:37:19.728Z,26.60
2018-06-15T12:39:48.245Z,26.30
2018-06-15T12:42:16.636Z,26.20
2018-06-15T12:44:45.024Z,25.70
2018-06-15T12:47:13.435Z,25.80
2018-06-15T12:49:41.945Z,26.00
2018-06-15T12:52:10.310Z,26.10
2018-06-15T12:54:38.708Z,25.90
2018-06-15T12:57:07.212Z,25.90
2018-06-15T12:59:35.575Z,25.90
2018-06-15T13:02:03.985Z,25.90
2018-06-15T13:04:32.384Z,26.10
2018-06-15T13:07:00.747Z,26.30
2018-06-15T13:09:29.206Z,26.50
2018-06-15T13:11:57.591Z,26.40
2018-06-15T13:14:25.968Z,25.70
2018-06-15T13:16:54.376Z,25.60
2018-06-15T13:19:22.774Z,25.60
2018-06-15T13:21:51.175Z,25.80
2018-06-15T13:24:19.592Z,25.90
2018-06-15T13:26:47.953Z,26.10
2018-06-15T13:29:16.392Z,25.90
2018-06-15T13:31:44.860Z,26.10
2018-06-15T13:34:13.312Z,26.90
2018-06-15T13:36:41.672Z,26.40
2018-06-15T13:39:11.996Z,26.60
2018-06-15T13:41:40.468Z,27.00
2018-06-15T13:44:08.892Z,27.10
2018-06-15T13:46:37.264Z,26.80
2018-06-15T13:49:05.799Z,26.50
2018-06-15T13:51:34.180Z,26.20
2018-06-15T13:54:02.577Z,26.50
2018-06-15T13:56:30.979Z,26.80
2018-06-15T13:58:59.436Z,26.80
2018-06-15T14:01:27.883Z,26.80
2018-06-15T14:03:56.569Z,27.00
2018-06-15T14:06:24.931Z,27.10
2018-06-15T14:11:21.412Z,27.50
2018-06-15T14:16:18.215Z,27.60
2018-06-15T14:18:46.584Z,27.30
2018-06-15T14:21:15.085Z,27.20
2018-06-15T14:26:11.759Z,26.90
2018-06-15T14:28:40.337Z,27.00
2018-06-15T14:31:08.768Z,26.90
2018-06-15T14:33:37.239Z,27.00
2018-06-15T14:36:05.628Z,27.00
2018-06-15T14:41:02.087Z,26.80
2018-06-15T14:43:30.459Z,26.60
2018-06-15T14:45:58.845Z,26.60
2018-06-15T14:48:27.201Z,26.40
2018-06-15T14:50:55.929Z,26.50
2018-06-15T14:53:24.296Z,26.90
2018-06-15T14:55:52.693Z,26.80
2018-06-15T14:58:21.109Z,26.80
2018-06-15T15:00:49.469Z,27.00
2018-06-15T15:03:17.844Z,26.90
2018-06-15T15:05:46.224Z,27.00
2018-06-15T15:08:14.601Z,27.00
2018-06-15T15:10:43.009Z,26.80
2018-06-15T15:13:11.404Z,26.60
2018-06-15T15:15:39.893Z,27.10
2018-06-15T15:18:08.312Z,26.60
2018-06-15T15:20:36.732Z,26.70
2018-06-15T15:23:05.240Z,26.50
2018-06-15T15:25:33.622Z,26.50
2018-06-15T15:28:02.056Z,26.60
2018-06-15T15:30:30.496Z,26.60
2018-06-15T15:32:58.878Z,26.60
2018-06-15T15:35:27.268Z,26.80
2018-06-15T15:37:55.623Z,27.40
2018-06-15T15:40:24.065Z,27.00
2018-06-15T15:42:52.534Z,26.80
2018-06-15T15:45:21.048Z,26.90
2018-06-15T15:47:49.435Z,27.00
2018-06-15T15:50:17.859Z,27.10
2018-06-15T15:52:46.240Z,26.90
2018-06-15T15:55:14.607Z,26.80
2018-06-15T15:57:43.053Z,26.80
2018-06-15T16:00:11.536Z,26.70
2018-06-15T16:02:39.950Z,26.60
2018-06-15T16:05:08.343Z,26.10
2018-06-15T16:07:36.778Z,25.90
2018-06-15T16:10:05.244Z,25.90
2018-06-15T16:12:33.612Z,26.00
2018-06-15T16:17:30.038Z,25.90
2018-06-15T16:19:58.404Z,25.70
2018-06-15T16:22:26.755Z,25.60
2018-06-15T16:24:55.441Z,25.50
2018-06-15T16:27:23.896Z,25.70
2018-06-15T16:29:52.200Z,25.80
2018-06-15T16:32:20.585Z,25.60
2018-06-15T16:34:48.952Z,25.40
2018-06-15T16:37:17.464Z,25.50
2018-06-15T16:39:45.767Z,25.40
2018-06-15T16:42:14.140Z,25.20
2018-06-15T16:44:42.849Z,25.10
2018-06-15T16:47:11.445Z,25.00
2018-06-15T16:49:39.778Z,25.10
2018-06-15T16:52:08.181Z,25.00
2018-06-15T16:54:36.555Z,24.90
2018-06-15T16:57:04.945Z,24.90
2018-06-15T16:59:33.300Z,24.80
2018-06-15T17:02:01.741Z,24.70
2018-06-15T17:04:30.337Z,24.90
2018-06-15T17:06:58.739Z,24.80
2018-06-15T17:09:27.180Z,24.70
2018-06-15T17:11:55.592Z,24.60
2018-06-15T17:14:24.082Z,24.60
2018-06-15T17:16:52.511Z,24.50
2018-06-15T17:19:20.877Z,24.50
2018-06-15T17:21:49.249Z,24.40
2018-06-15T17:24:17.620Z,24.30
2018-06-15T17:26:46.022Z,24.30
2018-06-15T17:29:14.544Z,24.40
2018-06-15T17:31:42.945Z,24.30
2018-06-15T17:34:11.316Z,24.10
2018-06-15T17:36:43.950Z,24.00
2018-06-15T17:39:12.811Z,23.90
2018-06-15T17:41:41.679Z,23.80
2018-06-15T17:44:10.175Z,23.70
2018-06-15T17:46:38.602Z,23.60
2018-06-15T17:49:07.258Z,23.50
2018-06-15T17:51:35.597Z,23.40
2018-06-15T17:54:04.011Z,23.30
2018-06-15T17:56:32.492Z,23.20
2018-06-15T17:59:00.948Z,23.00
2018-06-15T18:01:29.325Z,22.90
2018-06-15T18:03:57.715Z,22.80
2018-06-15T18:06:26.124Z,22.70
2018-06-15T18:08:54.531Z,22.60
2018-06-15T18:11:22.931Z,22.60
2018-06-15T18:13:51.352Z,22.50
2018-06-15T18:16:19.755Z,22.50
2018-06-15T18:18:48.152Z,22.40
2018-06-15T18:21:16.558Z,22.30
2018-06-15T18:23:44.953Z,22.30
2018-06-15T18:26:13.320Z,22.20
2018-06-15T18:28:41.772Z,22.10
2018-06-15T18:31:10.377Z,22.10
2018-06-15T18:33:38.769Z,22.00
2018-06-15T18:36:07.129Z,22.00
2018-06-15T18:38:35.539Z,22.00
2018-06-15T18:41:03.893Z,22.00
2018-06-15T18:43:32.303Z,22.00
2018-06-15T18:46:00.668Z,22.00
2018-06-15T18:48:29.056Z,22.00
2018-06-15T18:50:57.407Z,22.00
2018-06-15T18:53:25.804Z,21.90
2018-06-15T18:55:54.204Z,21.90
2018-06-15T18:58:22.600Z,21.90
2018-06-15T19:00:50.968Z,21.80
2018-06-15T19:03:19.374Z,21.70
2018-06-15T19:05:47.753Z,21.60
2018-06-15T19:08:16.156Z,21.50
2018-06-15T19:10:44.529Z,21.50
2018-06-15T19:13:12.899Z,21.40
2018-06-15T19:15:41.247Z,21.30
2018-06-15T19:18:09.627Z,21.30
2018-06-15T19:20:37.992Z,21.20
2018-06-15T19:23:06.638Z,21.10
2018-06-15T19:25:35.015Z,21.00
2018-06-15T19:28:03.448Z,20.90
2018-06-15T19:30:31.795Z,20.80
2018-06-15T19:33:00.656Z,20.70
2018-06-15T19:35:29.022Z,20.60
2018-06-15T19:37:57.394Z,20.50
2018-06-15T19:40:25.746Z,20.40
2018-06-15T19:42:54.100Z,20.20
2018-06-15T19:45:22.454Z,20.10
2018-06-15T19:47:50.881Z,20.00
2018-06-15T19:50:19.243Z,19.90
2018-06-15T19:52:47.600Z,19.80
2018-06-15T19:55:15.964Z,19.70
2018-06-15T19:57:44.596Z,19.50
2018-06-15T20:00:13.797Z,19.40
2018-06-15T20:02:42.149Z,19.30
2018-06-15T20:05:10.667Z,19.20
2018-06-15T20:07:39.082Z,19.00
2018-06-15T20:10:07.484Z,19.00
2018-06-15T20:12:35.829Z,18.90
2018-06-15T20:15:04.248Z,18.80
2018-06-15T20:17:32.607Z,18.70
2018-06-15T20:20:00.961Z,18.60
2018-06-15T20:22:29.323Z,18.50
2018-06-15T20:24:57.692Z,18.50
2018-06-15T20:27:26.149Z,18.50
2018-06-15T20:29:54.725Z,18.50
2018-06-15T20:32:23.084Z,18.40
2018-06-15T20:34:51.473Z,18.40
2018-06-15T20:37:19.828Z,18.30
2018-06-15T20:39:48.197Z,18.20
2018-06-15T20:42:16.531Z,18.20
2018-06-15T20:44:44.915Z,18.10
2018-06-15T20:47:13.261Z,18.10
2018-06-15T20:49:41.735Z,18.00
2018-06-15T20:52:10.075Z,18.00
2018-06-15T20:54:38.479Z,17.90
2018-06-15T20:57:06.828Z,17.80
2018-06-15T20:59:35.216Z,17.80
2018-06-15T21:02:03.564Z,17.60
2018-06-15T21:04:31.975Z,17.60
2018-06-15T21:07:00.321Z,17.50
2018-06-15T21:09:28.929Z,17.50
2018-06-15T21:11:57.292Z,17.40
2018-06-15T21:14:25.734Z,17.30
2018-06-15T21:16:54.103Z,17.20
2018-06-15T21:19:22.524Z,17.20
2018-06-15T21:21:50.896Z,17.10
2018-06-15T21:24:19.265Z,17.10
2018-06-15T21:26:47.636Z,17.00
2018-06-15T21:29:15.997Z,17.00
2018-06-15T21:31:44.380Z,16.90
2018-06-15T21:34:12.750Z,16.90
2018-06-15T21:36:41.239Z,16.90
2018-06-15T21:39:10.178Z,16.90
2018-06-15T21:41:38.584Z,16.90
2018-06-15T21:44:06.958Z,16.80
2018-06-15T21:46:35.484Z,16.90
2018-06-15T21:49:03.856Z,16.90
2018-06-15T21:51:32.282Z,16.80
2018-06-15T21:54:00.672Z,16.80
2018-06-15T21:56:29.060Z,16.80
2018-06-15T21:58:57.454Z,16.80
2018-06-15T22:03:55.732Z,16.80
2018-06-15T22:06:24.167Z,16.80
2018-06-15T22:11:20.838Z,16.70
2018-06-15T22:13:49.210Z,16.60
2018-06-15T22:16:17.624Z,16.60
2018-06-15T22:18:46.005Z,16.50
2018-06-15T22:21:14.409Z,16.50
2018-06-15T22:23:42.773Z,16.60
2018-06-15T22:26:11.297Z,16.50
2018-06-15T22:28:39.673Z,16.50
2018-06-15T22:31:08.352Z,16.50
2018-06-15T22:33:36.711Z,16.40
2018-06-15T22:36:05.120Z,16.40
2018-06-15T22:38:33.464Z,16.40
2018-06-15T22:41:01.849Z,16.30
2018-06-15T22:43:30.191Z,16.20
2018-06-15T22:45:58.552Z,16.10
2018-06-15T22:48:26.916Z,16.10
2018-06-15T22:50:55.352Z,15.90
2018-06-15T22:53:23.713Z,15.90
2018-06-15T22:55:52.092Z,15.80
2018-06-15T22:58:20.457Z,15.80
2018-06-15T23:00:48.821Z,15.80
2018-06-15T23:03:17.187Z,15.70
2018-06-15T23:05:45.554Z,15.70
2018-06-15T23:08:13.901Z,15.70
2018-06-15T23:10:42.295Z,15.60
2018-06-15T23:13:10.668Z,15.60
2018-06-15T23:15:39.066Z,15.60
2018-06-15T23:18:07.461Z,15.60
2018-06-15T23:20:35.842Z,15.60
2018-06-15T23:23:04.264Z,15.60
2018-06-15T23:25:32.653Z,15.60
2018-06-15T23:28:01.078Z,15.50
2018-06-15T23:30:29.449Z,15.50
2018-06-15T23:32:57.836Z,15.50
2018-06-15T23:35:26.211Z,15.50
2018-06-15T23:37:54.767Z,15.50
2018-06-15T23:40:23.184Z,15.50
2018-06-15T23:42:51.664Z,15.50
2018-06-15T23:45:20.041Z,15.50
2018-06-15T23:47:48.419Z,15.50
2018-06-15T23:50:16.800Z,15.60
2018-06-15T23:52:45.195Z,15.60
2018-06-15T23:55:13.557Z,15.60
2018-06-15T23:57:41.954Z,15.60
